Time;durP1;ratioP1;P1;durP2;ratioP2;P2;SDS_P1;SDS_P2;PMS_P1;PMS_P2;Temp;Humidity;BMP_temperature;BMP_pressure;BME280_temperature;BME280_humidity;BME280_pressure;Samples;Min_cycle;Max_cycle;Signal;HPM_P1;HPM_P2
2023/01/12 00:02:17;;;;;;;175.50;64.43;;;;;;;10.50;84.10;98838.44;4862788;29;20052;-59
2023/01/12 00:04:53;;;;;;;168.70;63.38;;;;;;;10.44;83.74;98839.22;4862174;29;20081;-59
2023/01/12 00:07:42;;;;;;;190.67;64.83;;;;;;;10.34;84.71;98841.34;4861298;29;20069;-57
2023/01/12 00:10:25;;;;;;;174.10;63.38;;;;;;;10.45;84.79;98845.28;4860738;29;20114;-59
2023/01/12 00:13:19;;;;;;;175.45;63.83;;;;;;;10.40;84.41;98855.66;4861496;29;20053;-59
2023/01/12 00:19:19;;;;;;;164.50;61.35;;;;;;;10.48;83.93;98859.00;4864952;29;20085;-60
2023/01/12 00:22:10;;;;;;;169.52;62.13;;;;;;;10.48;84.00;98858.19;4861096;29;20061;-60
2023/01/12 00:25:04;;;;;;;169.77;65.68;;;;;;;10.60;83.04;98860.13;4858932;29;20053;-59
2023/01/12 00:27:40;;;;;;;171.07;61.65;;;;;;;10.42;84.41;98861.56;4863046;29;20048;-59
2023/01/12 00:30:28;;;;;;;158.70;60.80;;;;;;;10.37;83.97;98872.72;4845867;29;20053;-58
2023/01/12 00:33:10;;;;;;;161.18;61.30;;;;;;;10.38;84.25;98876.19;4860502;29;20479;-58
2023/01/12 00:36:12;;;;;;;157.93;60.30;;;;;;;10.48;84.77;98866.13;4861587;29;20113;-59
2023/01/12 00:38:54;;;;;;;151.15;56.90;;;;;;;10.42;84.01;98864.22;4862636;29;20053;-59
2023/01/12 00:47:58;;;;;;;151.45;58.30;;;;;;;10.39;83.93;98870.72;4860066;29;20144;-58
2023/01/12 00:50:47;;;;;;;152.05;58.67;;;;;;;10.34;84.36;98875.75;4862785;29;20116;-59
2023/01/12 00:53:30;;;;;;;147.35;59.20;;;;;;;10.45;84.42;98888.47;4866412;29;20099;-59
2023/01/12 00:56:20;;;;;;;158.15;60.75;;;;;;;10.46;84.00;98887.47;4871543;29;20330;-58
2023/01/12 00:59:03;;;;;;;171.85;63.22;;;;;;;10.53;84.39;98892.88;4867871;29;20138;-59
2023/01/12 01:01:52;;;;;;;163.30;62.22;;;;;;;10.60;83.94;98893.75;4863460;29;20049;-59
2023/01/12 01:04:41;;;;;;;162.35;61.33;;;;;;;10.50;83.91;98894.03;4857419;29;20502;-59
2023/01/12 01:07:25;;;;;;;158.77;60.25;;;;;;;10.58;84.27;98893.09;4859073;29;20053;-60
2023/01/12 01:10:15;;;;;;;161.80;59.63;;;;;;;10.62;84.32;98889.09;4865418;29;20469;-58
2023/01/12 01:12:57;;;;;;;157.13;59.95;;;;;;;10.60;83.70;98893.75;4861716;29;20140;-59
2023/01/12 01:15:46;;;;;;;161.18;60.90;;;;;;;10.46;82.79;98891.94;4864608;29;20063;-59
2023/01/12 01:18:37;;;;;;;149.43;55.10;;;;;;;10.42;83.21;98886.22;4855502;29;20137;-57
2023/01/12 01:21:19;;;;;;;155.27;58.13;;;;;;;10.62;82.73;98889.88;4856676;29;20143;-56
2023/01/12 01:24:08;;;;;;;160.13;59.92;;;;;;;10.69;82.07;98888.16;4821001;29;20050;-57
2023/01/12 01:26:50;;;;;;;183.10;72.10;;;;;;;10.57;82.49;98902.91;4870304;29;20069;-56
2023/01/12 01:29:39;;;;;;;213.32;76.05;;;;;;;10.52;82.41;98910.59;4861034;29;20130;-56
2023/01/12 01:32:26;;;;;;;222.63;78.35;;;;;;;10.50;82.93;98907.28;4850754;29;20136;-57
2023/01/12 01:35:15;;;;;;;235.13;83.22;;;;;;;10.49;82.65;98904.84;4857997;29;20592;-56
2023/01/12 01:37:59;;;;;;;250.82;89.88;;;;;;;10.52;82.75;98904.47;4859247;29;20049;-55
2023/01/12 01:40:53;;;;;;;284.08;99.38;;;;;;;10.54;82.85;98905.06;4872945;29;20568;-55
2023/01/12 01:43:48;;;;;;;288.75;97.53;;;;;;;10.57;82.47;98920.63;4855939;29;20050;-55
2023/01/12 01:46:55;;;;;;;293.42;107.85;;;;;;;10.66;82.32;98922.97;4870810;29;20597;-55
2023/01/12 01:49:50;;;;;;;315.52;109.50;;;;;;;10.65;82.50;98931.09;4865184;29;20595;-54
2023/01/12 01:52:38;;;;;;;322.25;112.18;;;;;;;10.74;82.40;98936.09;4864263;29;20052;-54
2023/01/12 01:55:27;;;;;;;330.23;116.68;;;;;;;10.66;82.74;98938.84;4865541;29;20057;-55
2023/01/12 01:58:16;;;;;;;329.50;115.75;;;;;;;10.75;82.79;98943.00;4853754;29;20045;-55
2023/01/12 02:01:05;;;;;;;330.30;118.57;;;;;;;10.70;81.67;98940.13;4854208;29;20053;-55
2023/01/12 02:03:48;;;;;;;303.85;112.55;;;;;;;10.71;81.71;98948.91;4854534;29;20061;-55
2023/01/12 02:06:37;;;;;;;331.73;114.88;;;;;;;10.67;80.89;98950.25;4853463;29;21468;-55
2023/01/12 02:09:29;;;;;;;310.95;108.95;;;;;;;10.47;81.73;98955.31;4853338;29;20045;-54
2023/01/12 02:19:08;;;;;;;305.88;106.78;;;;;;;10.50;82.17;98968.19;4815717;29;20050;-58
2023/01/12 02:22:05;;;;;;;264.35;96.45;;;;;;;10.47;82.38;98965.91;4813492;29;20061;-54
2023/01/12 02:25:30;;;;;;;264.27;95.93;;;;;;;10.55;82.45;98980.88;4854079;29;20074;-55
2023/01/12 02:28:31;;;;;;;251.73;88.93;;;;;;;10.62;81.82;98979.94;4842257;29;20063;-56
2023/01/12 02:32:07;;;;;;;239.88;89.72;;;;;;;10.56;81.69;98977.22;4852381;29;20490;-54
2023/01/12 02:35:21;;;;;;;231.18;86.93;;;;;;;10.57;80.92;98978.88;4851727;29;20421;-56
2023/01/12 02:38:52;;;;;;;223.25;79.55;;;;;;;10.62;80.94;98981.78;4854419;29;20057;-55
2023/01/12 02:45:12;;;;;;;222.65;75.30;;;;;;;10.61;82.03;98974.84;4851254;29;20053;-53
2023/01/12 02:48:36;;;;;;;216.32;79.70;;;;;;;10.52;81.76;98984.72;4853352;29;20050;-56
2023/01/12 02:51:32;;;;;;;210.00;74.72;;;;;;;10.60;82.00;98976.66;4851119;29;20057;-55
2023/01/12 02:54:24;;;;;;;218.27;76.35;;;;;;;10.29;81.99;98989.31;4827526;29;20061;-58
2023/01/12 02:57:14;;;;;;;239.77;79.47;;;;;;;10.38;82.84;98988.19;4851407;29;20049;-56
2023/01/12 02:59:59;;;;;;;214.93;77.03;;;;;;;10.48;81.95;98988.75;4854360;29;20730;-56
2023/01/12 03:02:49;;;;;;;221.48;75.75;;;;;;;10.40;82.46;98999.41;4849866;29;20132;-56
2023/01/12 03:05:32;;;;;;;216.65;77.10;;;;;;;10.41;81.65;98993.13;4847141;29;20045;-56
2023/01/12 03:08:27;;;;;;;229.50;78.20;;;;;;;10.61;81.18;98986.25;4855385;29;20140;-58
2023/01/12 03:11:19;;;;;;;241.52;81.10;;;;;;;10.46;81.56;98987.28;4854506;29;20069;-58
2023/01/12 03:14:09;;;;;;;232.32;79.88;;;;;;;10.58;81.73;98988.44;4851958;29;20140;-59
2023/01/12 03:16:55;;;;;;;246.02;81.63;;;;;;;10.58;81.17;98994.56;4852650;29;20045;-59
2023/01/12 03:19:49;;;;;;;279.80;89.82;;;;;;;10.44;81.05;98991.94;4851803;29;20231;-58
2023/01/12 03:22:35;;;;;;;276.58;91.20;;;;;;;10.39;81.42;98989.03;4852449;29;20059;-58
2023/01/12 03:25:24;;;;;;;272.40;92.55;;;;;;;10.54;80.87;98998.59;4853557;29;20418;-58
2023/01/12 03:28:09;;;;;;;323.13;112.78;;;;;;;10.61;80.98;99007.44;4852064;29;20045;-57
2023/01/12 03:31:13;;;;;;;291.95;101.65;;;;;;;10.61;80.74;99004.81;4861713;29;20156;-57
2023/01/12 03:34:08;;;;;;;290.98;102.53;;;;;;;10.60;80.55;99005.81;4859575;29;20048;-57
2023/01/12 03:37:02;;;;;;;342.00;112.32;;;;;;;10.67;81.09;99009.34;4870352;29;20485;-58
2023/01/12 03:40:21;;;;;;;290.15;99.63;;;;;;;10.64;80.80;99012.38;4834267;29;20475;-58
2023/01/12 03:43:19;;;;;;;279.55;96.97;;;;;;;10.58;81.07;99015.75;4867896;29;20037;-57
2023/01/12 03:46:14;;;;;;;;;;;;;;;10.58;81.48;99022.88;4833864;29;20150;-57
2023/01/12 03:48:55;;;;;;;255.10;88.35;;;;;;;10.64;81.15;99020.31;4848175;29;19927;-57
2023/01/12 03:51:47;;;;;;;251.68;84.65;;;;;;;10.63;81.44;99025.78;4854211;29;20057;-58
2023/01/12 03:54:36;;;;;;;256.98;87.90;;;;;;;10.60;80.74;99029.63;4863838;29;20057;-59
2023/01/12 03:57:27;;;;;;;199.68;77.35;;;;;;;10.60;81.16;99040.22;4860470;29;20095;-57
2023/01/12 04:00:12;;;;;;;214.75;74.43;;;;;;;10.69;80.85;99038.31;4861615;29;20049;-59
2023/01/12 04:03:13;;;;;;;197.55;71.72;;;;;;;10.80;80.71;99043.94;4865073;29;20053;-57
2023/01/12 04:06:02;;;;;;;181.00;66.00;;;;;;;10.58;81.02;99046.69;4834399;29;20145;-56
2023/01/12 04:08:44;;;;;;;189.30;67.95;;;;;;;10.68;80.59;99052.53;4834147;29;20053;-57
2023/01/12 04:14:42;;;;;;;180.43;61.70;;;;;;;10.67;80.62;99061.50;4854584;29;20129;-57
2023/01/12 04:17:28;;;;;;;160.52;58.38;;;;;;;10.70;80.46;99058.50;4851542;29;20057;-56
2023/01/12 04:20:23;;;;;;;168.20;58.70;;;;;;;10.73;80.32;99061.59;4862118;29;20435;-56
2023/01/12 04:22:59;;;;;;;159.55;57.28;;;;;;;10.94;79.69;99062.63;4847512;29;20072;-57
2023/01/12 04:25:47;;;;;;;161.32;54.20;;;;;;;10.78;79.06;99064.50;4862746;29;20128;-55
2023/01/12 04:28:30;;;;;;;153.45;57.95;;;;;;;10.80;79.07;99069.59;4855431;29;20061;-54
2023/01/12 04:31:19;;;;;;;140.73;54.83;;;;;;;10.72;79.04;99062.59;4859387;29;20069;-56
2023/01/12 04:34:02;;;;;;;139.85;54.17;;;;;;;10.82;79.88;99063.13;4842869;29;20053;-59
2023/01/12 04:36:51;;;;;;;162.60;56.05;;;;;;;11.11;78.56;99074.66;4855742;29;20738;-55
2023/01/12 04:39:35;;;;;;;140.00;53.40;;;;;;;10.91;79.51;99063.84;4854759;29;20060;-55
2023/01/12 04:45:23;;;;;;;156.50;53.28;;;;;;;11.23;78.89;99065.25;4862352;29;20080;-57
2023/01/12 04:48:13;;;;;;;138.57;50.20;;;;;;;11.31;78.70;99066.94;4855540;29;20133;-60
2023/01/12 04:51:06;;;;;;;146.02;51.42;;;;;;;11.25;77.63;99066.69;4854138;29;20049;-61
2023/01/12 04:53:50;;;;;;;130.80;48.83;;;;;;;11.23;77.33;99063.41;4852098;29;20117;-59
2023/01/12 04:56:39;;;;;;;152.88;52.67;;;;;;;11.23;78.09;99067.88;4855772;29;20109;-60
2023/01/12 04:59:28;;;;;;;147.13;52.03;;;;;;;11.38;78.48;99060.69;4852487;29;20049;-58
2023/01/12 05:02:17;;;;;;;138.63;50.33;;;;;;;11.49;77.80;99062.84;4856505;29;20403;-59
2023/01/12 05:05:00;;;;;;;138.40;51.40;;;;;;;11.57;77.19;99059.25;4854036;29;20053;-59
2023/01/12 05:10:52;;;;;;;137.43;50.80;;;;;;;11.82;75.59;99068.47;4856862;29;20061;-57
2023/01/12 05:13:40;;;;;;;129.73;49.65;;;;;;;11.84;75.57;99073.59;4854256;29;20057;-55
2023/01/12 05:16:23;;;;;;;120.47;47.03;;;;;;;11.94;75.96;99068.78;4856369;29;20041;-53
2023/01/12 05:19:11;;;;;;;138.45;49.17;;;;;;;12.07;75.05;99068.91;4852930;29;20068;-54
2023/01/12 05:21:53;;;;;;;127.28;46.90;;;;;;;11.98;75.36;99062.09;4856364;29;20067;-58
2023/01/12 05:24:42;;;;;;;133.15;49.63;;;;;;;12.07;75.06;99064.41;4857043;29;20069;-53
2023/01/12 05:27:31;;;;;;;134.90;50.50;;;;;;;12.33;74.18;99063.78;4865923;29;20767;-57
2023/01/12 05:30:15;;;;;;;131.23;50.08;;;;;;;12.37;73.69;99057.03;4859049;29;20513;-54
2023/01/12 05:33:03;;;;;;;132.02;47.90;;;;;;;12.14;74.41;99062.63;4855343;29;20084;-57
2023/01/12 05:35:45;;;;;;;131.63;49.00;;;;;;;12.18;74.30;99072.84;4851066;29;20594;-54
2023/01/12 05:38:40;;;;;;;132.85;49.45;;;;;;;12.33;73.89;99068.25;4854956;29;20057;-54
2023/01/12 05:41:16;;;;;;;143.77;50.13;;;;;;;12.50;73.14;99070.41;4859415;29;20887;-55
2023/01/12 05:44:11;;;;;;;134.90;51.65;;;;;;;12.54;73.65;99062.88;4855248;29;20046;-54
2023/01/12 05:46:47;;;;;;;131.38;48.45;;;;;;;12.62;73.37;99057.38;4859196;29;20083;-60
2023/01/12 05:49:35;;;;;;;121.00;46.70;;;;;;;12.89;73.31;99053.00;4855052;29;20059;-59
2023/01/12 05:52:24;;;;;;;126.85;49.25;;;;;;;13.16;71.53;99057.44;4867949;29;20359;-57
2023/01/12 05:55:07;;;;;;;122.80;47.42;;;;;;;13.36;70.22;99060.16;4863951;29;21510;-58
2023/01/12 05:57:55;;;;;;;127.90;48.33;;;;;;;13.36;70.70;99047.69;4850037;29;20153;-56
2023/01/12 06:00:37;;;;;;;143.00;50.90;;;;;;;13.17;70.40;99048.44;4846572;29;20136;-59
2023/01/12 06:03:27;;;;;;;139.65;50.83;;;;;;;13.11;70.73;99045.75;4831652;29;20652;-60
2023/01/12 06:06:08;;;;;;;124.28;50.33;;;;;;;13.66;71.09;99036.66;4842134;29;20413;-60
2023/01/12 06:08:59;;;;;;;120.40;47.53;;;;;;;13.68;68.73;99032.75;4851404;29;20518;-59
2023/01/12 06:14:48;;;;;;;115.65;46.65;;;;;;;13.62;68.59;99024.78;4851145;29;20623;-60
2023/01/12 06:17:31;;;;;;;126.68;48.60;;;;;;;14.41;67.86;99016.72;4824944;29;20053;-59
2023/01/12 06:20:20;;;;;;;117.93;47.28;;;;;;;14.32;67.20;99016.13;4849067;29;20061;-56
2023/01/12 06:23:03;;;;;;;119.75;44.70;;;;;;;15.24;64.42;99005.91;4850977;29;20081;-57
2023/01/12 06:25:53;;;;;;;136.63;51.13;;;;;;;15.53;63.87;99001.84;4852319;29;20365;-60
2023/01/12 06:28:49;;;;;;;120.82;49.58;;;;;;;15.41;64.52;99000.84;4847233;29;20576;-59
2023/01/12 06:31:24;;;;;;;119.03;47.28;;;;;;;15.58;63.56;98995.81;4852935;29;20057;-58
2023/01/12 06:34:21;;;;;;;120.10;47.63;;;;;;;15.03;63.45;98992.06;4833948;29;20081;-59
2023/01/12 06:36:56;;;;;;;113.45;46.67;;;;;;;15.57;61.99;98980.88;4832871;29;20198;-57
2023/01/12 06:39:50;;;;;;;113.55;45.45;;;;;;;15.75;61.80;98977.44;4822792;29;20436;-58
2023/01/12 06:42:30;;;;;;;106.47;45.45;;;;;;;15.20;63.62;98979.88;4829990;29;20222;-57
2023/01/12 06:45:18;;;;;;;114.40;44.72;;;;;;;15.64;62.58;98965.59;4832170;29;20145;-57
2023/01/12 06:48:00;;;;;;;114.78;47.13;;;;;;;15.51;62.37;98963.03;4832750;29;20042;-57
2023/01/12 06:50:49;;;;;;;113.35;44.33;;;;;;;15.22;62.35;98961.81;4829770;29;20054;-58
2023/01/12 06:53:38;;;;;;;113.40;44.78;;;;;;;15.16;63.63;98943.97;4827770;29;20054;-59
2023/01/12 06:56:20;;;;;;;114.07;44.25;;;;;;;15.32;62.11;98939.94;4831137;29;20057;-58
2023/01/12 06:59:11;;;;;;;103.88;46.00;;;;;;;15.30;62.44;98929.50;4833216;29;20661;-57
2023/01/12 07:01:53;;;;;;;105.72;44.10;;;;;;;15.57;61.66;98924.81;4832454;29;20115;-60
2023/01/12 07:04:42;;;;;;;115.65;45.30;;;;;;;15.65;60.92;98917.34;4832737;29;20648;-57
2023/01/12 07:07:24;;;;;;;111.50;43.67;;;;;;;15.59;60.95;98910.19;4832072;29;20072;-58
2023/01/12 07:10:15;;;;;;;109.07;44.42;;;;;;;15.92;60.64;98915.22;4832744;29;20057;-58
2023/01/12 07:12:59;;;;;;;115.43;44.47;;;;;;;15.65;61.49;98906.66;4833087;29;20573;-55
2023/01/12 07:15:49;;;;;;;109.35;45.47;;;;;;;15.77;61.87;98893.38;4830934;29;20073;-55
2023/01/12 07:18:31;;;;;;;114.33;46.70;;;;;;;15.50;61.60;98890.16;4833576;29;20144;-58
2023/01/12 07:21:21;;;;;;;116.30;43.75;;;;;;;15.90;60.54;98885.22;4843640;29;20072;-57
2023/01/12 07:24:02;;;;;;;118.28;47.33;;;;;;;15.82;60.71;98871.34;4835697;29;20053;-56
2023/01/12 07:26:57;;;;;;;118.55;47.20;;;;;;;15.89;61.81;98866.78;4832848;29;20653;-59
2023/01/12 07:29:38;;;;;;;107.13;45.25;;;;;;;16.10;60.46;98864.47;4833390;29;20518;-59
2023/01/12 07:32:34;;;;;;;116.03;46.25;;;;;;;15.56;61.47;98859.91;4842612;29;20050;-57
2023/01/12 07:35:28;;;;;;;110.85;44.38;;;;;;;16.25;60.67;98848.03;4855581;29;20057;-60
2023/01/12 07:38:05;;;;;;;121.20;47.05;;;;;;;16.05;60.62;98842.13;4851938;29;20539;-58
2023/01/12 07:41:00;;;;;;;129.57;46.08;;;;;;;16.09;60.12;98841.44;4852649;29;20068;-59
2023/01/12 07:43:36;;;;;;;119.15;46.15;;;;;;;16.24;59.77;98832.22;4852615;29;20053;-56
2023/01/12 07:46:31;;;;;;;120.25;47.67;;;;;;;16.03;60.41;98830.84;4871034;29;20045;-56
2023/01/12 07:49:07;;;;;;;116.78;44.45;;;;;;;15.81;61.04;98830.47;4857288;29;20052;-59
2023/01/12 07:52:02;;;;;;;122.05;44.95;;;;;;;15.78;61.00;98827.44;4857003;29;20064;-58
2023/01/12 07:54:38;;;;;;;111.60;44.33;;;;;;;15.87;60.68;98821.59;4863376;29;20132;-56
2023/01/12 07:57:32;;;;;;;126.15;48.25;;;;;;;15.98;60.60;98815.47;4856938;29;20829;-58
2023/01/12 08:00:09;;;;;;;120.47;46.53;;;;;;;15.71;60.98;98814.19;4847949;29;20149;-58
2023/01/12 08:03:13;;;;;;;117.47;45.40;;;;;;;15.90;61.20;98813.13;4849515;29;20148;-57
2023/01/12 08:05:49;;;;;;;116.22;44.50;;;;;;;15.81;60.13;98802.94;4861840;29;20049;-55
2023/01/12 08:08:46;;;;;;;108.38;42.03;;;;;;;15.50;60.73;98802.06;4868649;29;20371;-59
2023/01/12 08:11:22;;;;;;;114.82;45.63;;;;;;;15.87;60.78;98805.56;4867742;29;20560;-56
2023/01/12 08:14:33;;;;;;;124.10;47.20;;;;;;;16.16;60.11;98798.59;4868138;29;20116;-58
2023/01/12 08:17:19;;;;;;;123.53;45.83;;;;;;;15.85;61.05;98790.78;4863786;29;20858;-56
2023/01/12 08:20:27;;;;;;;126.75;45.55;;;;;;;15.98;60.62;98790.63;4873309;29;20478;-59
2023/01/12 08:23:39;;;;;;;120.93;44.60;;;;;;;16.00;60.57;98783.19;4856455;29;20494;-57
2023/01/12 08:26:35;;;;;;;127.13;48.55;;;;;;;16.17;59.96;98774.34;4857170;29;20058;-56
2023/01/12 08:29:50;;;;;;;150.20;49.83;;;;;;;16.06;61.25;98780.47;4856553;29;20058;-58
2023/01/12 08:32:46;;;;;;;142.20;49.53;;;;;;;16.06;60.84;98767.09;4854726;29;20045;-57
2023/01/12 08:35:37;;;;;;;139.35;49.47;;;;;;;16.16;61.21;98759.34;4857071;29;20060;-57
2023/01/12 08:38:25;;;;;;;149.55;51.63;;;;;;;16.46;60.73;98770.00;4853332;29;20122;-58
2023/01/12 08:44:16;;;;;;;135.90;49.08;;;;;;;16.38;59.93;98765.00;4864057;29;20055;-57
2023/01/12 08:46:57;;;;;;;146.50;50.05;;;;;;;16.18;60.78;98761.78;4869281;29;20049;-57
2023/01/12 08:49:46;;;;;;;148.38;52.25;;;;;;;15.83;61.35;98758.16;4858586;29;20055;-58
2023/01/12 08:52:30;;;;;;;138.85;51.13;;;;;;;16.12;61.75;98752.00;4860353;29;20055;-58
2023/01/12 08:55:19;;;;;;;129.98;49.88;;;;;;;16.12;60.70;98742.13;4862298;29;20085;-56
2023/01/12 08:58:01;;;;;;;137.98;50.30;;;;;;;15.88;61.29;98742.28;4846759;29;20049;-55
2023/01/12 09:00:50;;;;;;;136.80;50.55;;;;;;;15.94;60.94;98739.50;4850231;29;20431;-56
2023/01/12 09:03:32;;;;;;;140.93;50.08;;;;;;;16.18;60.03;98737.75;4863293;29;20156;-56
2023/01/12 09:06:28;;;;;;;153.75;53.22;;;;;;;16.18;60.53;98738.56;4862808;29;20057;-55
2023/01/12 09:09:14;;;;;;;148.18;52.95;;;;;;;15.90;61.18;98727.63;4852524;29;20092;-57
2023/01/12 09:12:02;;;;;;;152.77;50.40;;;;;;;15.99;61.01;98728.97;4852654;29;20164;-58
2023/01/12 09:14:44;;;;;;;160.20;56.15;;;;;;;15.81;61.75;98733.50;4846059;29;20057;-57
2023/01/12 09:17:34;;;;;;;156.68;55.10;;;;;;;16.06;61.30;98718.19;4848025;29;20533;-56
2023/01/12 09:20:16;;;;;;;163.00;55.95;;;;;;;15.97;62.33;98719.56;4849513;29;20163;-57
2023/01/12 09:23:04;;;;;;;172.70;55.10;;;;;;;16.00;62.33;98716.41;4845830;29;20123;-57
2023/01/12 09:25:46;;;;;;;160.80;54.22;;;;;;;16.01;62.18;98710.84;4845101;29;20060;-57
2023/01/12 09:28:35;;;;;;;161.52;56.13;;;;;;;16.16;62.03;98700.56;4858370;29;20056;-58
2023/01/12 09:31:22;;;;;;;160.27;54.03;;;;;;;16.34;60.88;98696.19;4873417;29;20061;-55
2023/01/12 09:34:17;;;;;;;164.23;55.90;;;;;;;16.40;60.77;98698.75;4844546;29;20073;-55
2023/01/12 09:36:55;;;;;;;159.60;55.42;;;;;;;16.07;61.78;98693.09;4855441;29;20725;-56
2023/01/12 09:39:43;;;;;;;178.20;59.60;;;;;;;15.81;62.69;98690.78;4864103;29;20053;-55
2023/01/12 09:48:42;;;;;;;177.13;58.58;;;;;;;15.91;63.22;98689.22;4850548;29;20069;-54
2023/01/12 09:51:42;;;;;;;180.25;62.20;;;;;;;15.83;63.88;98688.72;4846059;29;20076;-53
2023/01/12 09:54:33;;;;;;;176.82;56.53;;;;;;;15.83;64.32;98686.03;4847986;29;20578;-56
2023/01/12 09:57:51;;;;;;;175.05;62.42;;;;;;;15.79;64.37;98683.03;4853560;29;20064;-58
2023/01/12 10:00:40;;;;;;;183.93;61.00;;;;;;;15.89;63.91;98682.47;4846123;29;20114;-54
2023/01/12 10:03:37;;;;;;;185.32;62.28;;;;;;;15.93;64.04;98689.00;4843860;29;20491;-55
2023/01/12 10:06:26;;;;;;;185.10;63.88;;;;;;;16.01;63.61;98684.16;4845943;29;20060;-54
2023/01/12 10:09:20;;;;;;;191.88;64.28;;;;;;;15.83;64.14;98681.53;4831095;29;20378;-54
2023/01/12 10:12:16;;;;;;;185.85;62.40;;;;;;;16.03;64.29;98683.91;4830760;29;20057;-52
2023/01/12 10:15:29;;;;;;;175.55;58.47;;;;;;;15.91;64.33;98680.38;4852171;29;20054;-56
2023/01/12 10:18:36;;;;;;;187.80;64.28;;;;;;;15.87;64.45;98680.03;4849618;29;20112;-54
2023/01/12 10:21:22;;;;;;;179.95;62.72;;;;;;;15.83;64.51;98683.38;4845398;29;20046;-54
2023/01/12 10:24:20;;;;;;;194.67;62.90;;;;;;;15.64;65.19;98682.59;4848606;29;20133;-56
2023/01/12 10:27:03;;;;;;;190.40;65.28;;;;;;;15.65;65.10;98677.03;4848863;29;20132;-53
2023/01/12 10:29:53;;;;;;;191.75;64.65;;;;;;;15.68;65.53;98681.91;4846363;29;20608;-53
2023/01/12 10:32:42;;;;;;;187.00;65.45;;;;;;;15.75;65.08;98673.00;4846769;29;20137;-56
2023/01/12 10:35:37;;;;;;;195.00;65.65;;;;;;;15.65;65.56;98670.88;4816620;29;20793;-56
2023/01/12 10:38:22;;;;;;;195.18;65.07;;;;;;;15.57;65.78;98674.69;4821207;29;20049;-55
2023/01/12 10:41:27;;;;;;;181.63;65.57;;;;;;;15.47;65.48;98662.88;4818899;29;20079;-59
2023/01/12 10:44:18;;;;;;;200.20;67.63;;;;;;;15.44;66.18;98663.31;4815801;29;20065;-54
2023/01/12 10:47:22;;;;;;;194.32;67.93;;;;;;;15.53;66.27;98667.34;4818512;29;20130;-57
2023/01/12 10:50:22;;;;;;;;;;;;;;;15.48;66.40;98669.84;4819229;29;20133;-54
2023/01/12 10:53:11;;;;;;;187.43;64.15;;;;;;;15.43;65.36;98664.34;4819172;29;19924;-56
2023/01/12 10:56:16;;;;;;;193.15;66.13;;;;;;;15.58;66.21;98659.47;4821785;29;20106;-55
2023/01/12 10:59:06;;;;;;;191.48;65.80;;;;;;;15.43;65.96;98664.34;4820630;29;20463;-53
2023/01/12 11:02:14;;;;;;;212.18;71.38;;;;;;;15.26;66.50;98659.63;4820221;29;20462;-54
2023/01/12 11:04:52;;;;;;;198.80;69.35;;;;;;;15.39;66.78;98660.50;4819483;29;20054;-55
2023/01/12 11:07:48;;;;;;;188.55;64.25;;;;;;;15.36;67.21;98660.94;4818752;29;20065;-54
2023/01/12 11:10:38;;;;;;;179.13;64.60;;;;;;;15.28;67.13;98662.88;4819016;29;20065;-54
2023/01/12 11:13:36;;;;;;;208.35;68.53;;;;;;;15.21;66.97;98656.81;4817942;29;20061;-57
2023/01/12 11:16:44;;;;;;;186.55;68.70;;;;;;;15.23;66.59;98665.41;4818880;29;20070;-57
2023/01/12 11:19:43;;;;;;;180.40;67.97;;;;;;;15.20;67.10;98660.53;4825648;29;20137;-55
2023/01/12 11:22:36;;;;;;;183.30;65.65;;;;;;;15.28;67.19;98654.06;4824268;29;20169;-57
2023/01/12 11:25:26;;;;;;;192.35;69.45;;;;;;;15.13;67.52;98651.78;4825876;29;20059;-57
2023/01/12 11:28:23;;;;;;;200.57;68.00;;;;;;;15.33;67.50;98650.72;4830279;29;20503;-57
2023/01/12 11:31:24;;;;;;;191.23;67.97;;;;;;;15.36;67.24;98653.75;4826738;29;20442;-54
2023/01/12 11:34:24;;;;;;;192.48;69.30;;;;;;;15.18;67.78;98651.09;4834826;29;20049;-58
2023/01/12 11:37:20;;;;;;;191.10;67.25;;;;;;;15.19;67.08;98653.53;4842770;29;20060;-57
2023/01/12 11:40:24;;;;;;;203.35;70.25;;;;;;;15.07;67.64;98642.00;4841375;29;20053;-56
2023/01/12 11:43:48;;;;;;;198.23;67.57;;;;;;;14.99;68.53;98642.31;4843364;29;20054;-55
2023/01/12 11:46:31;;;;;;;190.45;66.05;;;;;;;15.04;68.65;98647.78;4842910;29;20053;-58
2023/01/12 11:49:28;;;;;;;189.50;66.90;;;;;;;14.89;69.57;98639.31;4844182;29;20149;-58
2023/01/12 11:52:10;;;;;;;196.38;69.82;;;;;;;14.78;69.15;98648.84;4842487;29;20049;-55
2023/01/12 11:55:07;;;;;;;186.23;67.07;;;;;;;14.56;70.43;98644.19;4841335;29;20164;-55
2023/01/12 11:57:48;;;;;;;191.25;68.28;;;;;;;14.62;70.03;98641.44;4846630;29;20046;-57
2023/01/12 12:01:21;;;;;;;187.90;66.68;;;;;;;14.46;70.78;98649.19;4842666;29;20050;-57
2023/01/12 12:04:09;;;;;;;190.50;67.40;;;;;;;14.47;70.71;98638.28;4810765;29;20065;-57
2023/01/12 12:07:31;;;;;;;190.57;68.43;;;;;;;14.47;71.35;98651.59;4831742;29;20062;-57
2023/01/12 12:10:15;;;;;;;197.57;66.47;;;;;;;14.67;71.25;98648.78;4827633;29;20445;-58
2023/01/12 12:13:29;;;;;;;202.05;67.70;;;;;;;14.47;71.84;98656.16;4829931;29;20069;-56
2023/01/12 12:16:33;;;;;;;193.13;68.35;;;;;;;14.65;71.57;98653.50;4827135;29;20050;-54
2023/01/12 12:19:22;;;;;;;190.20;71.10;;;;;;;14.32;72.12;98657.25;4827563;29;20061;-60
2023/01/12 12:22:17;;;;;;;212.50;76.72;;;;;;;14.28;72.99;98665.91;4839821;29;20760;-60
2023/01/12 12:24:59;;;;;;;200.18;73.40;;;;;;;14.23;72.83;98657.75;4833722;29;20057;-57
2023/01/12 12:28:30;;;;;;;198.65;70.82;;;;;;;14.15;73.31;98660.69;4826409;29;20051;-56
2023/01/12 12:31:25;;;;;;;214.23;74.07;;;;;;;14.21;73.19;98652.63;4825878;29;20054;-52
2023/01/12 12:34:43;;;;;;;207.95;75.50;;;;;;;14.21;73.08;98660.59;4838737;29;20076;-60
2023/01/12 12:37:30;;;;;;;203.82;72.80;;;;;;;13.98;74.03;98662.22;4831923;29;20148;-57
2023/01/12 12:47:30;;;;;;;212.48;73.68;;;;;;;13.80;74.93;98673.59;4852383;29;20046;-57
2023/01/12 12:50:38;;;;;;;213.57;77.60;;;;;;;13.66;75.03;98670.19;4846213;29;20052;-57
2023/01/12 12:53:51;;;;;;;210.52;77.43;;;;;;;13.48;76.10;98681.53;4856041;29;20101;-57
2023/01/12 12:56:31;;;;;;;211.90;80.75;;;;;;;13.74;75.45;98677.94;4861921;29;20069;-58
2023/01/12 12:59:44;;;;;;;214.45;78.57;;;;;;;13.78;74.92;98681.78;4854624;29;20170;-58
2023/01/12 13:02:39;;;;;;;202.73;77.35;;;;;;;13.81;75.09;98680.53;4856362;29;20144;-59
2023/01/12 13:06:15;;;;;;;206.10;75.70;;;;;;;13.63;75.19;98675.94;4854504;29;20141;-57
2023/01/12 13:08:57;;;;;;;202.00;73.22;;;;;;;13.50;75.54;98676.81;4857668;29;20057;-59
2023/01/12 13:11:58;;;;;;;205.55;77.30;;;;;;;13.72;75.42;98679.97;4869641;29;20056;-58
2023/01/12 13:15:20;;;;;;;205.93;77.43;;;;;;;13.49;75.45;98677.03;4874068;29;20064;-59
2023/01/12 13:18:04;;;;;;;214.73;79.65;;;;;;;13.55;75.57;98678.00;4840002;29;20133;-57
2023/01/12 13:20:57;;;;;;;210.98;83.50;;;;;;;13.74;74.69;98677.09;4864042;29;20580;-59
2023/01/12 13:23:53;;;;;;;229.03;87.10;;;;;;;13.79;74.48;98682.63;4863243;29;20053;-54
2023/01/12 13:26:44;;;;;;;226.05;86.53;;;;;;;13.50;75.25;98684.78;4863222;29;20353;-60
2023/01/12 13:29:29;;;;;;;232.25;91.03;;;;;;;13.64;75.02;98684.72;4850426;29;20112;-58
2023/01/12 13:32:46;;;;;;;249.73;104.97;;;;;;;13.78;75.00;98683.63;4854400;29;20781;-58
2023/01/12 13:35:45;;;;;;;232.95;95.40;;;;;;;13.58;74.41;98686.41;4516808;29;10000592;-59
2023/01/12 13:38:39;;;;;;;241.00;100.28;;;;;;;13.70;74.71;98679.38;4853558;29;20068;-57
2023/01/12 13:44:48;;;;;;;230.40;96.30;;;;;;;13.64;74.26;98687.38;4854467;29;20153;-60
2023/01/12 13:47:35;;;;;;;253.73;106.22;;;;;;;13.58;75.09;98688.25;4856386;29;20072;-58
2023/01/12 13:50:26;;;;;;;;;;;;;;;13.52;75.04;98681.94;4832233;29;20061;-59
2023/01/12 13:53:10;;;;;;;257.20;102.35;;;;;;;13.49;75.24;98685.03;4840559;29;20011;-60